Time;durP1;ratioP1;P1;durP2;ratioP2;P2;SDS_P1;SDS_P2;PMS_P1;PMS_P2;Temp;Humidity;BMP_temperature;BMP_pressure;BME280_temperature;BME280_humidity;BME280_pressure;Samples;Min_cycle;Max_cycle;Signal;HPM_P1;HPM_P2
2021/03/07 00:01:22;;;;;;;;;;;;;;;3.24;69.75;101623.51;1598522;89;20316;-78
2021/03/07 00:04:07;;;;;;;;;;;;;;;3.24;69.77;101618.80;1594404;89;20310;-78
2021/03/07 00:06:52;;;;;;;;;;;;;;;3.26;69.80;101626.11;1594067;89;20300;-78
2021/03/07 00:09:36;;;;;;;;;;;;;;;3.27;69.84;101620.17;1602725;88;21423;-78
2021/03/07 00:12:21;;;;;;;;;;;;;;;3.29;69.88;101613.42;1600163;88;20300;-78
2021/03/07 00:15:08;;;;;;;;;;;;;;;3.28;69.86;101602.33;1601554;87;20312;-78
2021/03/07 00:17:52;;;;;;;;;;;;;;;3.29;69.92;101610.45;1603944;87;20313;-78
2021/03/07 00:20:37;;;;;;;;;;;;;;;3.32;69.95;101590.50;1594423;88;20299;-78
2021/03/07 00:23:22;;;;;;;;;;;;;;;3.31;69.97;101599.86;1593637;87;21229;-79
2021/03/07 00:26:06;;;;;;;;;;;;;;;3.31;69.93;101591.33;1601060;88;20353;-79
2021/03/07 00:28:51;;;;;;;;;;;;;;;3.32;69.97;101599.45;1571575;89;20305;-79
2021/03/07 00:31:35;;;;;;;;;;;;;;;3.31;69.99;101583.25;1595282;88;20300;-79
2021/03/07 00:34:20;;;;;;;;;;;;;;;3.30;69.95;101588.31;1599605;87;20424;-79
2021/03/07 00:37:05;;;;;;;;;;;;;;;3.28;69.99;101581.88;1593793;88;20559;-79
2021/03/07 00:39:50;;;;;;;;;;;;;;;3.27;69.98;101576.73;1604210;89;20591;-79
2021/03/07 00:42:34;;;;;;;;;;;;;;;3.26;70.02;101570.75;1603092;89;20311;-79
2021/03/07 00:45:20;;;;;;;;;;;;;;;3.27;70.06;101572.48;1599505;88;20541;-79
2021/03/07 00:48:07;;;;;;;;;;;;;;;3.29;70.05;101568.28;1588316;88;20329;-79
2021/03/07 00:50:52;;;;;;;;;;;;;;;3.31;70.13;101562.80;1597934;88;20320;-79
2021/03/07 00:53:37;;;;;;;;;;;;;;;3.35;70.12;101569.28;1594871;88;20639;-79
2021/03/07 00:56:21;;;;;;;;;;;;;;;3.35;70.07;101552.25;1579543;89;20556;-79
2021/03/07 00:59:06;;;;;;;;;;;;;;;3.36;70.11;101555.67;1602844;87;20341;-79
2021/03/07 01:01:50;;;;;;;;;;;;;;;3.37;70.10;101547.19;1596641;87;20300;-79
2021/03/07 01:04:35;;;;;;;;;;;;;;;3.36;70.11;101543.77;1600047;89;20548;-79
2021/03/07 01:07:20;;;;;;;;;;;;;;;3.36;70.09;101542.48;1601069;88;20436;-79
2021/03/07 01:10:17;;;;;;;;;;;;;;;3.35;70.14;101538.19;1606317;86;20205;-80
2021/03/07 01:13:05;;;;;;;;;;;;;;;3.33;70.12;101531.76;1595815;88;20291;-79
2021/03/07 01:15:50;;;;;;;;;;;;;;;3.35;70.09;101517.75;1598789;88;20282;-79
2021/03/07 01:18:34;;;;;;;;;;;;;;;3.39;70.15;101512.30;1604474;87;20612;-79
2021/03/07 01:21:19;;;;;;;;;;;;;;;3.41;70.11;101508.10;1588102;88;20282;-79
2021/03/07 01:24:04;;;;;;;;;;;;;;;3.43;70.07;101501.34;1584944;88;20198;-79
2021/03/07 01:26:48;;;;;;;;;;;;;;;3.42;69.99;101499.61;1581939;89;20203;-79
2021/03/07 01:29:33;;;;;;;;;;;;;;;3.39;70.00;101491.86;1590177;88;20264;-79
2021/03/07 01:32:17;;;;;;;;;;;;;;;3.38;69.96;101483.73;1596810;89;20270;-79
2021/03/07 01:35:02;;;;;;;;;;;;;;;3.36;69.95;101495.19;1596510;89;20283;-79
2021/03/07 01:37:47;;;;;;;;;;;;;;;3.35;69.93;101479.81;1583327;89;20280;-79
2021/03/07 01:40:38;;;;;;;;;;;;;;;3.33;69.88;101477.22;1577938;89;20270;-79
2021/03/07 01:43:23;;;;;;;;;;;;;;;3.33;69.87;101474.25;1586689;88;20264;-79
2021/03/07 01:46:07;;;;;;;;;;;;;;;3.33;69.86;101470.83;1592519;89;20342;-79
2021/03/07 01:48:52;;;;;;;;;;;;;;;3.32;69.88;101465.26;1596590;88;20520;-79
2021/03/07 01:51:36;;;;;;;;;;;;;;;3.33;69.87;101459.33;1588523;88;20314;-79
2021/03/07 01:54:22;;;;;;;;;;;;;;;3.30;69.81;101457.55;1587944;89;20348;-79
2021/03/07 01:57:07;;;;;;;;;;;;;;;3.27;69.83;101457.47;1595286;88;20298;-79
2021/03/07 01:59:53;;;;;;;;;;;;;;;3.26;69.85;101453.18;1592285;89;20298;-79
2021/03/07 02:02:38;;;;;;;;;;;;;;;3.26;69.85;101459.98;1573551;89;20259;-79
2021/03/07 02:05:24;;;;;;;;;;;;;;;3.27;69.87;101458.74;1587371;89;20298;-79
2021/03/07 02:08:09;;;;;;;;;;;;;;;3.25;69.83;101449.30;1585788;89;20587;-79
2021/03/07 02:10:59;;;;;;;;;;;;;;;3.23;69.81;101430.09;1584155;88;20255;-79
2021/03/07 02:13:46;;;;;;;;;;;;;;;3.21;69.83;101439.82;1595787;88;21276;-79
2021/03/07 02:16:31;;;;;;;;;;;;;;;3.17;69.85;101427.78;1580196;90;20338;-79
2021/03/07 02:19:17;;;;;;;;;;;;;;;3.15;69.92;101435.82;1593651;88;20306;-79
2021/03/07 02:22:05;;;;;;;;;;;;;;;3.13;69.90;101427.25;1592934;89;20412;-79
2021/03/07 02:24:49;;;;;;;;;;;;;;;3.13;69.88;101422.14;1591118;89;20324;-79
2021/03/07 02:27:35;;;;;;;;;;;;;;;3.12;69.93;101412.33;1592528;89;20210;-79
2021/03/07 02:30:21;;;;;;;;;;;;;;;3.13;69.95;101414.06;1593331;89;20316;-79
2021/03/07 02:33:18;;;;;;;;;;;;;;;3.15;69.96;101416.66;1590271;88;20305;-79
2021/03/07 02:36:09;;;;;;;;;;;;;;;3.14;69.96;101409.81;1595258;89;20740;-79
2021/03/07 02:38:54;;;;;;;;;;;;;;;3.14;69.98;101418.34;1596559;89;20328;-79
2021/03/07 02:41:40;;;;;;;;;;;;;;;3.11;69.90;101402.97;1586363;89;20330;-79
2021/03/07 02:44:26;;;;;;;;;;;;;;;3.08;69.87;101410.95;1585411;89;20288;-78
2021/03/07 02:47:13;;;;;;;;;;;;;;;3.05;69.93;101407.05;1577440;90;20340;-78
2021/03/07 02:50:00;;;;;;;;;;;;;;;3.03;69.95;101409.55;1583915;88;20308;-78
2021/03/07 02:53:03;;;;;;;;;;;;;;;2.99;69.90;101395.83;1594416;90;20648;-78
2021/03/07 02:55:54;;;;;;;;;;;;;;;2.98;69.88;101397.06;1585309;89;20288;-78
2021/03/07 02:58:40;;;;;;;;;;;;;;;2.95;69.90;101393.16;1596005;88;20305;-78
2021/03/07 03:01:25;;;;;;;;;;;;;;;2.94;69.88;101383.76;1592367;88;20318;-78
2021/03/07 03:04:10;;;;;;;;;;;;;;;2.91;69.90;101390.06;1590956;89;20326;-78
2021/03/07 03:06:54;;;;;;;;;;;;;;;2.88;69.90;101381.90;1595196;89;20342;-78
2021/03/07 03:09:39;;;;;;;;;;;;;;;2.85;69.92;101396.27;1585847;89;20204;-78
2021/03/07 03:12:24;;;;;;;;;;;;;;;2.81;69.87;101381.27;1584833;88;20279;-78
2021/03/07 03:15:10;;;;;;;;;;;;;;;2.79;69.89;101380.78;1587849;90;20555;-78
2021/03/07 03:17:54;;;;;;;;;;;;;;;2.78;69.91;101379.05;1596326;89;20273;-78
2021/03/07 03:20:39;;;;;;;;;;;;;;;2.77;69.87;101381.14;1591277;88;20315;-78
2021/03/07 03:23:24;;;;;;;;;;;;;;;2.76;69.93;101379.00;1596634;88;20267;-78
2021/03/07 03:26:09;;;;;;;;;;;;;;;2.72;69.91;101377.19;1582109;89;20179;-78
2021/03/07 03:28:56;;;;;;;;;;;;;;;2.72;69.94;101381.42;1593355;90;20493;-78
2021/03/07 03:31:40;;;;;;;;;;;;;;;2.69;69.97;101359.23;1601299;89;20264;-78
2021/03/07 03:34:24;;;;;;;;;;;;;;;2.66;69.96;101376.60;1591817;89;20256;-78
2021/03/07 03:37:09;;;;;;;;;;;;;;;2.67;69.98;101371.08;1595230;89;20338;-78
2021/03/07 03:39:55;;;;;;;;;;;;;;;2.65;69.95;101378.70;1584670;89;20310;-78
2021/03/07 03:42:40;;;;;;;;;;;;;;;2.63;69.95;101374.38;1585289;90;20321;-78
2021/03/07 03:45:26;;;;;;;;;;;;;;;2.60;69.87;101378.14;1595304;89;20306;-79
2021/03/07 03:48:19;;;;;;;;;;;;;;;2.58;69.92;101387.04;1579787;89;20407;-79
2021/03/07 03:51:06;;;;;;;;;;;;;;;2.56;69.90;101369.53;1581189;90;20325;-79
2021/03/07 03:53:52;;;;;;;;;;;;;;;2.55;69.92;101373.32;1595268;88;20326;-79
2021/03/07 03:56:36;;;;;;;;;;;;;;;2.53;69.88;101368.58;1588600;88;20702;-79
2021/03/07 03:59:23;;;;;;;;;;;;;;;2.51;69.90;101368.95;1595917;88;20573;-79
2021/03/07 04:02:08;;;;;;;;;;;;;;;2.48;69.87;101365.89;1587864;89;20293;-79
2021/03/07 04:04:55;;;;;;;;;;;;;;;2.46;69.89;101363.70;1588751;88;20305;-79
2021/03/07 04:07:40;;;;;;;;;;;;;;;2.46;69.84;101358.61;1596528;88;20312;-78
2021/03/07 04:10:24;;;;;;;;;;;;;;;2.42;69.81;101361.02;1581232;89;20312;-78
2021/03/07 04:13:15;;;;;;;;;;;;;;;2.40;69.83;101363.94;1588898;88;20295;-79
2021/03/07 04:16:00;;;;;;;;;;;;;;;2.37;69.84;101359.61;1605178;88;20299;-79
2021/03/07 04:18:46;;;;;;;;;;;;;;;2.35;69.84;101366.36;1606890;88;21004;-78
2021/03/07 04:21:31;;;;;;;;;;;;;;;2.33;69.85;101355.23;1578960;89;20322;-78
2021/03/07 04:24:16;;;;;;;;;;;;;;;2.30;69.84;101356.02;1585356;88;20292;-79
2021/03/07 04:27:01;;;;;;;;;;;;;;;2.30;69.78;101348.77;1584221;89;20312;-79
2021/03/07 04:29:46;;;;;;;;;;;;;;;2.29;69.78;101350.45;1586439;88;20293;-79
2021/03/07 04:32:32;;;;;;;;;;;;;;;2.28;69.77;101345.31;1595425;88;20295;-79
2021/03/07 04:35:17;;;;;;;;;;;;;;;2.29;69.76;101345.77;1589737;89;20337;-79
2021/03/07 04:38:03;;;;;;;;;;;;;;;2.28;69.72;101344.90;1599767;88;20543;-79
2021/03/07 04:40:48;;;;;;;;;;;;;;;2.29;69.74;101345.77;1595277;89;20341;-79
2021/03/07 04:43:48;;;;;;;;;;;;;;;2.28;69.70;101355.11;1595224;89;20298;-79
2021/03/07 04:46:33;;;;;;;;;;;;;;;2.28;69.68;101341.48;1588498;88;20293;-79
2021/03/07 04:49:17;;;;;;;;;;;;;;;2.26;69.67;101339.30;1574432;89;20296;-79
2021/03/07 04:52:02;;;;;;;;;;;;;;;2.25;69.66;101346.08;1593375;88;20284;-79
2021/03/07 04:54:47;;;;;;;;;;;;;;;2.26;69.67;101341.44;1588678;89;20321;-79
2021/03/07 04:57:32;;;;;;;;;;;;;;;2.27;69.69;101346.13;1589223;89;20306;-79
2021/03/07 05:00:17;;;;;;;;;;;;;;;2.27;69.64;101341.02;1610797;88;20364;-79
2021/03/07 05:03:02;;;;;;;;;;;;;;;2.26;69.69;101333.78;1567726;89;20562;-79
2021/03/07 05:05:48;;;;;;;;;;;;;;;2.26;69.66;101340.16;1587257;89;20284;-79
2021/03/07 05:08:32;;;;;;;;;;;;;;;2.27;69.68;101335.52;1595861;88;20480;-79
2021/03/07 05:11:17;;;;;;;;;;;;;;;2.28;69.69;101338.92;1602239;88;20268;-79
2021/03/07 05:14:02;;;;;;;;;;;;;;;2.30;69.65;101336.02;1592372;90;20273;-79
2021/03/07 05:16:46;;;;;;;;;;;;;;;2.29;69.62;101320.25;1585175;88;20205;-79
2021/03/07 05:19:31;;;;;;;;;;;;;;;2.29;69.63;101324.08;1600672;88;20467;-79
2021/03/07 05:22:15;;;;;;;;;;;;;;;2.29;69.65;101318.97;1590663;89;20322;-79
2021/03/07 05:25:00;;;;;;;;;;;;;;;2.30;69.66;101315.59;1600919;87;20288;-79
2021/03/07 05:27:45;;;;;;;;;;;;;;;2.32;69.66;101315.23;1598160;88;20512;-78
2021/03/07 05:30:29;;;;;;;;;;;;;;;2.32;69.66;101318.65;1589303;88;20679;-78
2021/03/07 05:33:16;;;;;;;;;;;;;;;2.31;69.62;101314.78;1590714;88;20335;-78
2021/03/07 05:36:00;;;;;;;;;;;;;;;2.30;69.64;101302.84;1598407;89;20736;-78
2021/03/07 05:38:45;;;;;;;;;;;;;;;2.29;69.62;101313.87;1604391;88;20296;-78
2021/03/07 05:41:31;;;;;;;;;;;;;;;2.30;69.65;101301.56;1595389;88;21273;-78
2021/03/07 05:44:16;;;;;;;;;;;;;;;2.30;69.63;101301.16;1593403;88;20768;-78
2021/03/07 05:47:00;;;;;;;;;;;;;;;2.29;69.57;101305.80;1601866;87;20675;-78
2021/03/07 05:49:45;;;;;;;;;;;;;;;2.29;69.59;101303.66;1591922;88;20307;-78
2021/03/07 05:52:30;;;;;;;;;;;;;;;2.30;69.64;101302.84;1607952;88;20328;-78
2021/03/07 05:55:16;;;;;;;;;;;;;;;2.30;69.58;101299.88;1600189;88;21246;-78
2021/03/07 05:58:01;;;;;;;;;;;;;;;2.30;69.59;101301.56;1599907;87;20422;-79
2021/03/07 06:00:46;;;;;;;;;;;;;;;2.32;69.63;101305.02;1585000;88;20345;-78
2021/03/07 06:03:31;;;;;;;;;;;;;;;2.32;69.58;101299.92;1599868;87;20292;-79
2021/03/07 06:06:16;;;;;;;;;;;;;;;2.35;69.57;101292.77;1605428;87;20303;-79
2021/03/07 06:09:16;;;;;;;;;;;;;;;2.34;69.54;101304.66;1600330;88;20292;-78
2021/03/07 06:12:02;;;;;;;;;;;;;;;2.32;69.53;101302.47;1599756;89;20329;-78
2021/03/07 06:14:50;;;;;;;;;;;;;;;2.32;69.55;101304.61;1606465;86;20316;-78
2021/03/07 06:17:45;;;;;;;;;;;;;;;2.33;69.57;101307.62;1610517;88;20306;-78
2021/03/07 06:20:30;;;;;;;;;;;;;;;2.35;69.61;101307.66;1609257;88;20559;-79
2021/03/07 06:23:14;;;;;;;;;;;;;;;2.37;69.57;101293.67;1582394;88;398433;-78
2021/03/07 06:26:03;;;;;;;;;;;;;;;2.37;69.59;101298.78;1605634;88;20296;-79
2021/03/07 06:29:05;;;;;;;;;;;;;;;2.39;69.59;101298.41;1603223;88;20307;-78
2021/03/07 06:31:51;;;;;;;;;;;;;;;2.40;69.54;101289.93;1602367;87;20299;-78
2021/03/07 06:34:45;;;;;;;;;;;;;;;2.41;69.58;101296.77;1604726;87;20339;-78
2021/03/07 06:37:30;;;;;;;;;;;;;;;2.41;69.59;101286.55;1600613;86;20300;-79
2021/03/07 06:40:38;;;;;;;;;;;;;;;2.40;69.58;101287.38;1602441;88;20328;-79
2021/03/07 06:43:27;;;;;;;;;;;;;;;2.39;69.60;101292.89;1582060;88;20682;-78
2021/03/07 06:46:30;;;;;;;;;;;;;;;2.41;69.60;101284.87;1602629;87;20754;-78
2021/03/07 06:49:23;;;;;;;;;;;;;;;2.41;69.63;101295.08;1604322;86;20348;-78
2021/03/07 06:52:16;;;;;;;;;;;;;;;2.42;69.59;101290.43;1605254;86;20272;-78
2021/03/07 06:55:03;;;;;;;;;;;;;;;2.42;69.60;101282.77;1584180;89;20260;-78
2021/03/07 06:57:47;;;;;;;;;;;;;;;2.42;69.61;101276.39;1582139;88;20186;-78
2021/03/07 07:00:37;;;;;;;;;;;;;;;2.42;69.59;101284.45;1603419;88;20296;-78
2021/03/07 07:03:22;;;;;;;;;;;;;;;2.42;69.60;101287.01;1603013;89;20304;-78
2021/03/07 07:06:10;;;;;;;;;;;;;;;2.42;69.64;101281.50;1600127;87;20559;-78
2021/03/07 07:08:55;;;;;;;;;;;;;;;2.43;69.62;101281.95;1602942;88;20424;-78
2021/03/07 07:11:45;;;;;;;;;;;;;;;2.45;69.62;101271.78;1575630;88;20310;-78
2021/03/07 07:14:40;;;;;;;;;;;;;;;2.44;69.65;101273.47;1602382;87;20352;-79
2021/03/07 07:17:25;;;;;;;;;;;;;;;2.47;69.64;101277.38;1603607;88;20308;-78
2021/03/07 07:20:11;;;;;;;;;;;;;;;2.47;69.64;101279.94;1597723;88;20659;-78
2021/03/07 07:22:56;;;;;;;;;;;;;;;2.49;69.70;101274.46;1601457;87;20321;-79
2021/03/07 07:25:41;;;;;;;;;;;;;;;2.52;69.70;101265.61;1601604;88;20310;-76
2021/03/07 07:28:27;;;;;;;;;;;;;;;2.53;69.64;101258.81;1602365;88;20584;-76
2021/03/07 07:31:31;;;;;;;;;;;;;;;2.54;69.62;101263.97;1597005;87;20307;-76
2021/03/07 07:34:19;;;;;;;;;;;;;;;2.54;69.62;101269.07;1596642;88;20583;-76
2021/03/07 07:37:07;;;;;;;;;;;;;;;2.55;69.63;101269.52;1604531;87;20290;-76
2021/03/07 07:39:53;;;;;;;;;;;;;;;2.57;69.64;101271.70;1599118;87;20312;-76
2021/03/07 07:42:38;;;;;;;;;;;;;;;2.59;69.66;101274.30;1605814;88;20293;-76
2021/03/07 07:45:24;;;;;;;;;;;;;;;2.59;69.61;101267.92;1605347;88;20299;-76
2021/03/07 07:48:09;;;;;;;;;;;;;;;2.59;69.60;101270.06;1601146;87;20257;-76
2021/03/07 07:50:53;;;;;;;;;;;;;;;2.59;69.65;101270.06;1594996;87;20310;-78
2021/03/07 07:53:38;;;;;;;;;;;;;;;2.61;69.60;101261.99;1592270;88;20308;-78
2021/03/07 07:56:38;;;;;;;;;;;;;;;2.59;69.54;101256.02;1598531;88;20315;-78
2021/03/07 07:59:26;;;;;;;;;;;;;;;2.59;69.62;101245.80;1623610;87;20297;-79
2021/03/07 08:02:11;;;;;;;;;;;;;;;2.60;69.61;101238.56;1594812;89;20320;-79
2021/03/07 08:04:55;;;;;;;;;;;;;;;2.63;69.65;101231.40;1602884;87;20312;-78
2021/03/07 08:08:00;;;;;;;;;;;;;;;2.64;69.62;101232.72;1603376;88;20291;-78
2021/03/07 08:10:47;;;;;;;;;;;;;;;2.67;69.65;101229.38;1600651;88;20303;-78
2021/03/07 08:13:38;;;;;;;;;;;;;;;2.73;69.70;101228.27;1600339;87;20272;-78
2021/03/07 08:16:40;;;;;;;;;;;;;;;2.74;69.61;101232.55;1605753;87;20320;-77
2021/03/07 08:19:42;;;;;;;;;;;;;;;2.74;69.56;101227.84;1604530;87;20683;-77
2021/03/07 08:22:27;;;;;;;;;;;;;;;2.77;69.64;101230.06;1586729;87;20330;-77
2021/03/07 08:25:12;;;;;;;;;;;;;;;2.81;69.61;101222.08;1590443;88;20304;-77
2021/03/07 08:27:56;;;;;;;;;;;;;;;2.80;69.54;101221.62;1572193;90;20569;-78
2021/03/07 08:30:41;;;;;;;;;;;;;;;2.84;69.62;101224.30;1590584;88;20325;-78
2021/03/07 08:33:34;;;;;;;;;;;;;;;2.87;69.59;101223.09;1579170;89;20376;-78
2021/03/07 08:36:23;;;;;;;;;;;;;;;2.91;69.59;101223.62;1596384;88;20698;-77
2021/03/07 08:39:15;;;;;;;;;;;;;;;2.93;69.54;101213.03;1585947;89;20330;-78
2021/03/07 08:42:00;;;;;;;;;;;;;;;2.96;69.58;101206.72;1598494;88;20329;-78
2021/03/07 08:44:48;;;;;;;;;;;;;;;3.03;69.61;101204.31;1594905;88;20416;-81
2021/03/07 08:47:58;;;;;;;;;;;;;;;3.11;69.65;101203.67;1593839;88;20331;-77
2021/03/07 08:50:45;;;;;;;;;;;;;;;3.19;69.57;101201.26;1587393;88;20671;-78
2021/03/07 08:53:32;;;;;;;;;;;;;;;3.23;69.41;101205.20;1583073;88;20733;-77
2021/03/07 08:56:17;;;;;;;;;;;;;;;3.26;69.49;101197.61;1584634;88;20293;-77
2021/03/07 08:59:02;;;;;;;;;;;;;;;3.27;69.40;101195.91;1596922;88;20298;-77
2021/03/07 09:01:50;;;;;;;;;;;;;;;3.25;69.37;101201.41;1590694;88;20300;-77
2021/03/07 09:04:37;;;;;;;;;;;;;;;3.26;69.47;101195.47;1592015;89;20291;-77
2021/03/07 09:07:29;;;;;;;;;;;;;;;3.30;69.48;101190.88;1583221;88;174240;-77
2021/03/07 09:10:18;;;;;;;;;;;;;;;3.32;69.42;101184.97;1593992;88;20312;-77
2021/03/07 09:13:12;;;;;;;;;;;;;;;3.35;69.39;101184.59;1594326;88;20326;-78
2021/03/07 09:15:59;;;;;;;;;;;;;;;3.36;69.39;101182.48;1586007;89;20211;-77
2021/03/07 09:18:44;;;;;;;;;;;;;;;3.41;69.40;101179.20;1593909;88;20352;-77
2021/03/07 09:21:29;;;;;;;;;;;;;;;3.42;69.32;101184.76;1590271;88;20608;-79
2021/03/07 09:24:13;;;;;;;;;;;;;;;3.40;69.34;101173.64;1593854;88;20312;-75
2021/03/07 09:27:11;;;;;;;;;;;;;;;3.44;69.42;101177.13;1592760;88;20324;-75
2021/03/07 09:29:58;;;;;;;;;;;;;;;3.43;69.29;101176.67;1588444;88;20338;-74
2021/03/07 09:32:50;;;;;;;;;;;;;;;3.44;69.38;101174.16;1591118;88;20291;-74
2021/03/07 09:35:36;;;;;;;;;;;;;;;3.45;69.36;101178.44;1592628;88;20317;-74
2021/03/07 09:38:21;;;;;;;;;;;;;;;3.43;69.32;101174.12;1586624;88;20289;-74
2021/03/07 09:41:06;;;;;;;;;;;;;;;3.36;69.24;101171.84;1579403;88;20322;-74
2021/03/07 09:43:50;;;;;;;;;;;;;;;3.38;69.38;101171.46;1595857;88;20305;-75
2021/03/07 09:46:35;;;;;;;;;;;;;;;3.39;69.36;101166.80;1593643;88;20300;-76
2021/03/07 09:49:22;;;;;;;;;;;;;;;3.40;69.32;101172.36;1580953;88;20387;-74
2021/03/07 09:52:08;;;;;;;;;;;;;;;3.38;69.24;101173.16;1593103;88;20327;-75
2021/03/07 09:54:55;;;;;;;;;;;;;;;3.40;69.31;101170.22;1597659;88;20305;-76
2021/03/07 09:57:39;;;;;;;;;;;;;;;3.41;69.33;101175.36;1590783;88;20302;-81
2021/03/07 10:00:24;;;;;;;;;;;;;;;3.43;69.36;101169.88;1580273;88;20321;-78
2021/03/07 10:03:21;;;;;;;;;;;;;;;3.43;69.21;101172.42;1587898;88;20293;-78
2021/03/07 10:06:17;;;;;;;;;;;;;;;3.45;69.25;101167.34;1594054;88;20326;-78
2021/03/07 10:09:08;;;;;;;;;;;;;;;3.44;69.23;101178.41;1586261;88;20501;-78
2021/03/07 10:11:59;;;;;;;;;;;;;;;3.45;69.32;101171.19;1581782;88;20578;-78
2021/03/07 10:14:45;;;;;;;;;;;;;;;3.51;69.33;101167.48;1597009;88;20424;-78
2021/03/07 10:17:41;;;;;;;;;;;;;;;3.53;69.27;101170.52;1596935;88;20605;-78
2021/03/07 10:20:33;;;;;;;;;;;;;;;3.56;69.22;101163.33;1597090;88;21085;-78
2021/03/07 10:23:18;;;;;;;;;;;;;;;3.55;69.27;101163.75;1594295;88;20334;-80
2021/03/07 10:26:04;;;;;;;;;;;;;;;3.60;69.24;101160.01;1599743;89;20304;-78
2021/03/07 10:28:49;;;;;;;;;;;;;;;3.60;69.21;101159.59;1602259;88;20329;-76
2021/03/07 10:31:33;;;;;;;;;;;;;;;3.61;69.19;101162.59;1599099;87;20296;-78
2021/03/07 10:34:30;;;;;;;;;;;;;;;3.61;69.19;101152.78;1600926;88;20871;-80
2021/03/07 10:37:34;;;;;;;;;;;;;;;3.61;69.19;101154.06;1573472;89;21256;-80
2021/03/07 10:40:22;;;;;;;;;;;;;;;3.59;69.15;101157.00;1543508;90;20259;-80
2021/03/07 10:43:06;;;;;;;;;;;;;;;3.59;69.21;101154.45;1552269;90;20561;-79
2021/03/07 10:45:51;;;;;;;;;;;;;;;3.62;69.22;101141.31;1548606;89;20313;-79
2021/03/07 10:48:36;;;;;;;;;;;;;;;3.68;69.21;101147.35;1563556;89;20314;-79
2021/03/07 10:51:21;;;;;;;;;;;;;;;3.71;69.14;101143.58;1570828;89;21414;-80
2021/03/07 10:54:06;;;;;;;;;;;;;;;3.72;69.14;101142.75;1564858;89;20309;-79
2021/03/07 10:56:51;;;;;;;;;;;;;;;3.72;69.14;101138.49;1569909;89;20329;-79
2021/03/07 10:59:35;;;;;;;;;;;;;;;3.77;69.12;101144.56;1562682;91;20338;-79
2021/03/07 11:02:20;;;;;;;;;;;;;;;3.78;69.12;101138.62;1556866;89;20328;-79
2021/03/07 11:05:07;;;;;;;;;;;;;;;3.78;69.01;101135.20;1567787;89;21251;-79
2021/03/07 11:07:51;;;;;;;;;;;;;;;3.78;69.07;101136.48;1569402;89;20423;-79
2021/03/07 11:10:36;;;;;;;;;;;;;;;3.81;69.11;101137.40;1568878;89;437222;-79
2021/03/07 11:13:21;;;;;;;;;;;;;;;3.86;69.18;101126.84;1580589;88;326164;-79
2021/03/07 11:16:06;;;;;;;;;;;;;;;3.88;68.99;101135.41;1597000;88;20303;-79
2021/03/07 11:18:51;;;;;;;;;;;;;;;3.86;69.00;101132.37;1586786;88;20578;-80
2021/03/07 11:21:36;;;;;;;;;;;;;;;3.90;69.09;101127.34;1588456;88;20318;-82
2021/03/07 11:24:21;;;;;;;;;;;;;;;3.92;69.09;101128.24;1578586;88;20317;-84
2021/03/07 11:27:06;;;;;;;;;;;;;;;3.90;68.93;101120.95;1576576;89;20339;-84
2021/03/07 11:29:50;;;;;;;;;;;;;;;3.86;68.95;101119.17;1572092;89;20311;-84
2021/03/07 11:32:36;;;;;;;;;;;;;;;3.87;69.06;101114.91;1580789;89;20323;-84
2021/03/07 11:35:21;;;;;;;;;;;;;;;3.90;69.13;101105.60;1575610;89;20295;-84
2021/03/07 11:38:05;;;;;;;;;;;;;;;3.92;69.00;101105.22;1574878;89;20319;-84
2021/03/07 11:40:50;;;;;;;;;;;;;;;3.88;68.95;101103.44;1571717;89;20324;-84
2021/03/07 11:43:35;;;;;;;;;;;;;;;3.90;69.11;101097.06;1577344;89;20708;-84
2021/03/07 11:46:19;;;;;;;;;;;;;;;3.94;69.06;101103.97;1576252;89;20494;-84
2021/03/07 11:49:04;;;;;;;;;;;;;;;3.96;69.01;101101.02;1573360;89;20294;-84
2021/03/07 11:51:49;;;;;;;;;;;;;;;3.97;69.01;101092.09;1577744;89;21084;-84
2021/03/07 11:54:33;;;;;;;;;;;;;;;3.97;68.96;101093.79;1568384;89;20320;-84
2021/03/07 11:57:18;;;;;;;;;;;;;;;3.99;68.97;101079.33;1569480;89;20308;-84
2021/03/07 12:00:05;;;;;;;;;;;;;;;4.00;68.96;101074.66;1576512;89;20608;-85
2021/03/07 12:02:50;;;;;;;;;;;;;;;4.01;68.91;101075.52;1572976;89;20537;-84
2021/03/07 12:05:35;;;;;;;;;;;;;;;3.95;68.85;101073.30;1576805;89;20306;-84
2021/03/07 12:08:19;;;;;;;;;;;;;;;3.92;68.90;101074.52;1579309;89;20554;-84
2021/03/07 12:11:04;;;;;;;;;;;;;;;3.91;68.94;101074.07;1575994;89;20698;-84
2021/03/07 12:13:49;;;;;;;;;;;;;;;3.89;68.85;101068.48;1577619;89;20325;-84
2021/03/07 12:16:34;;;;;;;;;;;;;;;3.85;68.91;101059.89;1555876;90;20292;-84
2021/03/07 12:19:18;;;;;;;;;;;;;;;3.85;68.93;101062.86;1550787;90;20308;-84
2021/03/07 12:22:04;;;;;;;;;;;;;;;3.89;69.01;101050.58;1583707;88;20310;-84
2021/03/07 12:24:50;;;;;;;;;;;;;;;3.92;69.01;101055.75;1552664;90;20301;-84
2021/03/07 12:27:35;;;;;;;;;;;;;;;3.97;69.01;101045.18;1548982;90;20694;-84
2021/03/07 12:30:20;;;;;;;;;;;;;;;4.01;68.95;101049.52;1566167;91;20634;-85
2021/03/07 12:33:04;;;;;;;;;;;;;;;4.01;68.83;101042.26;1576558;88;20310;-84
2021/03/07 12:35:49;;;;;;;;;;;;;;;4.01;68.87;101035.86;1601423;88;20315;-84
2021/03/07 12:38:34;;;;;;;;;;;;;;;4.02;68.89;101031.19;1584131;88;20348;-84
2021/03/07 12:41:19;;;;;;;;;;;;;;;3.98;68.84;101024.73;1593954;88;20304;-84
2021/03/07 12:44:03;;;;;;;;;;;;;;;3.97;68.81;101023.44;1593756;88;20329;-84
2021/03/07 12:46:49;;;;;;;;;;;;;;;3.98;68.88;101013.64;1594051;88;20319;-84
2021/03/07 12:49:33;;;;;;;;;;;;;;;3.99;68.84;101009.83;1591568;88;20296;-84
2021/03/07 12:52:18;;;;;;;;;;;;;;;4.02;68.92;101018.39;1590713;88;20431;-84
2021/03/07 12:55:03;;;;;;;;;;;;;;;4.03;68.85;101013.72;1559358;89;20298;-84
2021/03/07 12:57:48;;;;;;;;;;;;;;;4.03;68.84;101006.05;1600087;88;20315;-84
2021/03/07 13:00:32;;;;;;;;;;;;;;;4.05;68.80;101003.09;1595243;87;20320;-85
2021/03/07 13:03:17;;;;;;;;;;;;;;;4.05;68.77;100996.28;1595310;88;20310;-84
2021/03/07 13:06:02;;;;;;;;;;;;;;;4.04;68.75;101003.93;1599583;87;20276;-84
2021/03/07 13:08:47;;;;;;;;;;;;;;;4.07;68.80;100997.58;1595061;88;20325;-84
2021/03/07 13:11:31;;;;;;;;;;;;;;;4.05;68.75;100989.02;1592233;88;20570;-85
2021/03/07 13:14:16;;;;;;;;;;;;;;;4.05;68.75;100977.51;1600447;88;20292;-84
2021/03/07 13:17:01;;;;;;;;;;;;;;;4.04;68.81;100984.73;1576581;88;20287;-84
2021/03/07 13:19:45;;;;;;;;;;;;;;;4.05;68.85;100981.34;1601394;88;20290;-84
2021/03/07 13:22:30;;;;;;;;;;;;;;;4.07;68.83;100977.11;1598279;88;20309;-84
2021/03/07 13:25:15;;;;;;;;;;;;;;;4.06;68.83;100972.83;1597156;88;20679;-84
2021/03/07 13:28:00;;;;;;;;;;;;;;;4.09;68.79;100969.05;1578072;89;20315;-84
2021/03/07 13:30:45;;;;;;;;;;;;;;;4.08;68.81;100975.86;1584791;89;20312;-84
2021/03/07 13:33:29;;;;;;;;;;;;;;;4.08;68.82;100972.02;1578110;89;20300;-84
2021/03/07 13:36:14;;;;;;;;;;;;;;;4.08;68.85;100972.02;1578015;89;20303;-84
2021/03/07 13:38:59;;;;;;;;;;;;;;;4.10;68.87;100974.60;1586979;88;20304;-84
2021/03/07 13:41:43;;;;;;;;;;;;;;;4.09;68.81;100963.51;1593512;89;20436;-83
2021/03/07 13:44:29;;;;;;;;;;;;;;;4.10;68.83;100968.20;1583858;88;20659;-83
2021/03/07 13:47:13;;;;;;;;;;;;;;;4.12;68.85;100977.62;1579548;89;20430;-83
2021/03/07 13:49:58;;;;;;;;;;;;;;;4.14;68.84;100973.81;1580341;89;20313;-83
2021/03/07 13:52:43;;;;;;;;;;;;;;;4.15;68.82;100976.41;1586500;88;20317;-83
2021/03/07 13:55:28;;;;;;;;;;;;;;;4.13;68.70;100960.16;1587627;89;20287;-84
2021/03/07 13:58:13;;;;;;;;;;;;;;;4.08;68.69;100960.92;1587513;88;20301;-83
2021/03/07 14:00:57;;;;;;;;;;;;;;;4.05;68.75;100957.04;1592124;89;20294;-83
2021/03/07 14:03:42;;;;;;;;;;;;;;;4.06;68.78;100961.32;1588613;87;20296;-84
2021/03/07 14:06:27;;;;;;;;;;;;;;;4.04;68.76;100957.45;1585192;88;20344;-84
2021/03/07 14:09:11;;;;;;;;;;;;;;;4.04;68.76;100956.17;1588358;89;20292;-84
2021/03/07 14:11:56;;;;;;;;;;;;;;;4.03;68.77;100942.94;1581059;89;20298;-83
2021/03/07 14:14:41;;;;;;;;;;;;;;;4.00;68.70;100950.56;1591453;89;20320;-83
2021/03/07 14:17:25;;;;;;;;;;;;;;;3.99;68.74;100948.42;1577077;88;20352;-83
2021/03/07 14:20:12;;;;;;;;;;;;;;;3.99;68.74;100951.41;1576247;89;20303;-83
2021/03/07 14:22:56;;;;;;;;;;;;;;;3.97;68.76;100936.03;1599216;88;20309;-83
2021/03/07 14:25:41;;;;;;;;;;;;;;;3.95;68.67;100938.98;1587502;89;20320;-83